createdAt,value
2022-09-30T04:30:48.076Z,994.37
2022-09-30T04:31:48.103Z,994.36
2022-09-30T04:32:48.025Z,994.45
2022-09-30T04:33:48.008Z,994.39
2022-09-30T04:34:47.991Z,994.42
2022-09-30T04:35:48.019Z,994.46
2022-09-30T04:36:47.984Z,994.48
2022-09-30T04:37:47.962Z,994.42
2022-09-30T04:38:47.957Z,994.44
2022-09-30T04:39:47.937Z,994.43
2022-09-30T04:40:47.949Z,994.46
2022-09-30T04:41:47.916Z,994.44
2022-09-30T04:42:47.910Z,994.50
2022-09-30T04:43:47.929Z,994.50
2022-09-30T04:44:47.884Z,994.47
2022-09-30T04:45:47.948Z,994.47
2022-09-30T04:46:47.877Z,994.42
2022-09-30T04:47:47.850Z,994.48
2022-09-30T04:48:47.853Z,994.45
2022-09-30T04:49:47.844Z,994.45
2022-09-30T04:50:47.824Z,994.44
2022-09-30T04:51:47.811Z,994.47
2022-09-30T04:52:47.828Z,994.47
2022-09-30T04:53:47.802Z,994.53
2022-09-30T04:54:47.785Z,994.47
2022-09-30T04:55:47.763Z,994.49
2022-09-30T04:56:47.774Z,994.52
2022-09-30T04:57:47.746Z,994.51
2022-09-30T04:58:47.740Z,994.52
2022-09-30T04:59:47.760Z,994.53
2022-09-30T05:00:47.772Z,994.51
2022-09-30T05:01:47.769Z,994.51
2022-09-30T05:02:47.711Z,994.48
2022-09-30T05:03:47.682Z,994.46
2022-09-30T05:04:47.668Z,994.50
2022-09-30T05:05:47.676Z,994.49
2022-09-30T05:06:47.675Z,994.47
2022-09-30T05:07:47.637Z,994.49
2022-09-30T05:08:47.624Z,994.51
2022-09-30T05:09:47.689Z,994.52
2022-09-30T05:10:47.601Z,994.52
2022-09-30T05:11:47.604Z,994.56
2022-09-30T05:12:47.602Z,994.57
2022-09-30T05:13:47.635Z,994.56
2022-09-30T05:14:47.563Z,994.60
2022-09-30T05:15:47.643Z,994.62
2022-09-30T05:16:47.544Z,994.59
2022-09-30T05:17:47.542Z,994.58
2022-09-30T05:18:47.582Z,994.54
2022-09-30T05:19:47.518Z,994.55
2022-09-30T05:20:47.495Z,994.59
2022-09-30T05:21:47.488Z,994.55
2022-09-30T05:22:47.476Z,994.58
2022-09-30T05:23:47.475Z,994.58
2022-09-30T05:24:47.491Z,994.58
2022-09-30T05:25:47.455Z,994.64
2022-09-30T05:26:47.429Z,994.61
2022-09-30T05:27:47.421Z,994.60
2022-09-30T05:28:47.411Z,994.64
2022-09-30T05:29:47.417Z,994.63
2022-09-30T05:30:47.391Z,994.60
2022-09-30T05:31:47.518Z,994.64
2022-09-30T05:32:47.374Z,994.61
2022-09-30T05:33:47.366Z,994.73
2022-09-30T05:34:47.378Z,994.66
2022-09-30T05:35:47.340Z,994.73
2022-09-30T05:36:47.322Z,994.75
2022-09-30T05:37:47.322Z,994.72
2022-09-30T05:38:47.300Z,994.75
2022-09-30T05:39:47.322Z,994.76
2022-09-30T05:40:47.279Z,994.72
2022-09-30T05:41:47.285Z,994.80
2022-09-30T05:42:47.267Z,994.80
2022-09-30T05:43:47.263Z,994.78
2022-09-30T05:44:47.232Z,994.78
2022-09-30T05:45:47.236Z,994.81
2022-09-30T05:46:47.297Z,994.79
2022-09-30T05:47:47.202Z,994.89
2022-09-30T05:48:47.221Z,994.92
2022-09-30T05:49:47.184Z,994.88
2022-09-30T05:50:47.188Z,994.89
2022-09-30T05:51:47.176Z,994.95
2022-09-30T05:52:47.149Z,994.96
2022-09-30T05:53:47.161Z,994.91
2022-09-30T05:54:47.133Z,994.92
2022-09-30T05:55:47.119Z,994.89
2022-09-30T05:56:47.109Z,994.91
2022-09-30T05:57:47.106Z,994.94
2022-09-30T05:58:47.091Z,994.90
2022-09-30T05:59:47.091Z,994.91
2022-09-30T06:00:47.065Z,994.93
2022-09-30T06:01:47.183Z,994.94
2022-09-30T06:02:47.195Z,994.98
2022-09-30T06:03:47.055Z,994.95
2022-09-30T06:04:47.024Z,994.95
2022-09-30T06:05:47.031Z,994.99
2022-09-30T06:06:47.024Z,994.97
2022-09-30T06:07:46.991Z,994.98
2022-09-30T06:08:46.975Z,995.05
2022-09-30T06:09:47.029Z,995.07
2022-09-30T06:10:46.961Z,995.05
2022-09-30T06:11:46.969Z,995.07
2022-09-30T06:12:46.938Z,995.12
2022-09-30T06:13:46.926Z,995.14
2022-09-30T06:14:46.917Z,995.16
2022-09-30T06:15:46.901Z,995.13
2022-09-30T06:16:46.962Z,995.17
2022-09-30T06:17:46.885Z,995.17
2022-09-30T06:18:46.875Z,995.19
2022-09-30T06:19:46.866Z,995.21
2022-09-30T06:20:46.874Z,995.19
2022-09-30T06:21:46.841Z,995.21
2022-09-30T06:22:46.966Z,995.27
2022-09-30T06:23:46.826Z,995.26
2022-09-30T06:24:49.434Z,995.25
2022-09-30T06:25:46.818Z,995.27
2022-09-30T06:26:46.781Z,995.29
2022-09-30T06:27:46.780Z,995.31
2022-09-30T06:28:46.773Z,995.34
2022-09-30T06:29:46.759Z,995.39
2022-09-30T06:30:46.760Z,995.39
2022-09-30T06:31:46.793Z,995.41
2022-09-30T06:32:46.722Z,995.43
2022-09-30T06:33:46.720Z,995.50
2022-09-30T06:34:46.714Z,995.53
2022-09-30T06:35:46.707Z,995.54
2022-09-30T06:36:46.677Z,995.54
2022-09-30T06:37:46.661Z,995.55
2022-09-30T06:38:46.726Z,995.58
2022-09-30T06:39:46.642Z,995.57
2022-09-30T06:40:46.654Z,995.65
2022-09-30T06:41:46.635Z,995.64
2022-09-30T06:42:46.616Z,995.65
2022-09-30T06:43:46.618Z,995.66
2022-09-30T06:44:52.655Z,995.68
2022-09-30T06:45:47.668Z,995.62
2022-09-30T06:46:53.587Z,995.62
2022-09-30T06:47:58.225Z,995.57
2022-09-30T06:48:47.547Z,995.58
2022-09-30T06:49:49.838Z,995.58
2022-09-30T06:50:57.171Z,995.62
2022-09-30T06:51:47.519Z,995.59
2022-09-30T06:52:46.513Z,995.61
2022-09-30T06:53:49.003Z,995.56
2022-09-30T06:54:46.500Z,995.61
2022-09-30T06:55:46.489Z,995.57
2022-09-30T06:56:46.489Z,995.54
2022-09-30T06:57:46.458Z,995.57
2022-09-30T06:58:46.469Z,995.54
2022-09-30T06:59:46.445Z,995.55
2022-09-30T07:00:46.479Z,995.56
2022-09-30T07:01:46.527Z,995.58
2022-09-30T07:02:46.399Z,995.55
2022-09-30T07:03:46.385Z,995.58
2022-09-30T07:04:46.375Z,995.61
2022-09-30T07:05:46.404Z,995.61
2022-09-30T07:06:46.366Z,995.61
2022-09-30T07:07:46.348Z,995.64
2022-09-30T07:08:46.351Z,995.66
2022-09-30T07:09:46.400Z,995.72
2022-09-30T07:10:46.325Z,995.69
2022-09-30T07:11:46.319Z,995.70
2022-09-30T07:12:46.307Z,995.70
2022-09-30T07:13:46.286Z,995.69
2022-09-30T07:14:46.271Z,995.70
2022-09-30T07:15:46.268Z,995.72
2022-09-30T07:16:46.269Z,995.68
2022-09-30T07:17:46.252Z,995.73
2022-09-30T07:18:46.244Z,995.75
2022-09-30T07:19:46.214Z,995.79
2022-09-30T07:20:46.216Z,995.78
2022-09-30T07:21:46.202Z,995.77
2022-09-30T07:22:46.189Z,995.86
2022-09-30T07:23:46.197Z,995.82
2022-09-30T07:24:46.169Z,995.86
2022-09-30T07:25:46.174Z,995.83
2022-09-30T07:26:46.184Z,995.88
2022-09-30T07:27:46.147Z,995.83
2022-09-30T07:28:46.126Z,995.81
2022-09-30T07:30:07.766Z,995.81
2022-09-30T07:30:47.104Z,995.78
2022-09-30T07:31:46.117Z,995.85
2022-09-30T07:32:46.085Z,995.81
2022-09-30T07:33:46.067Z,995.85
2022-09-30T07:34:46.109Z,995.87
2022-09-30T07:35:46.062Z,995.90
2022-09-30T07:36:46.042Z,995.89
2022-09-30T07:37:46.036Z,995.93
2022-09-30T07:38:46.015Z,995.88
2022-09-30T07:39:46.032Z,995.91
2022-09-30T07:40:45.992Z,995.91
2022-09-30T07:41:46.018Z,995.87
2022-09-30T07:42:46.307Z,995.87
2022-09-30T07:43:45.964Z,995.90
2022-09-30T07:44:45.969Z,995.92
2022-09-30T07:45:46.036Z,995.90
2022-09-30T07:46:45.932Z,995.92
2022-09-30T07:47:48.559Z,995.90
2022-09-30T07:48:46.969Z,995.91
2022-09-30T07:49:45.895Z,995.93
2022-09-30T07:50:45.906Z,995.99
2022-09-30T07:51:45.954Z,996.00
2022-09-30T07:52:45.861Z,995.98
2022-09-30T07:53:45.852Z,996.00
2022-09-30T07:54:50.455Z,995.98
2022-09-30T07:55:45.838Z,996.08
2022-09-30T07:57:46.832Z,996.07
2022-09-30T07:58:45.825Z,996.11
2022-09-30T07:59:45.799Z,996.17
2022-09-30T08:00:45.779Z,996.15
2022-09-30T08:01:45.771Z,996.10
2022-09-30T08:02:45.847Z,996.10
2022-09-30T08:03:45.763Z,996.13
2022-09-30T08:04:45.765Z,996.10
2022-09-30T08:05:45.727Z,996.13
2022-09-30T08:06:45.717Z,996.15
2022-09-30T08:07:45.709Z,996.20
2022-09-30T08:08:45.735Z,996.20
2022-09-30T08:09:45.810Z,996.11
2022-09-30T08:10:45.677Z,996.09
2022-09-30T08:11:45.664Z,996.07
2022-09-30T08:12:45.644Z,996.10
2022-09-30T08:13:45.642Z,996.08
2022-09-30T08:14:45.696Z,996.10
2022-09-30T08:15:45.622Z,996.10
2022-09-30T08:16:45.668Z,996.09
2022-09-30T08:17:45.599Z,996.07
2022-09-30T08:18:45.608Z,996.16
2022-09-30T08:19:45.578Z,996.18
2022-09-30T08:20:45.561Z,996.16
2022-09-30T08:21:45.593Z,996.21
2022-09-30T08:22:45.566Z,996.24
2022-09-30T08:23:45.532Z,996.22
2022-09-30T08:24:45.548Z,996.29
2022-09-30T08:25:45.509Z,996.30
2022-09-30T08:26:45.560Z,996.29
2022-09-30T08:27:45.492Z,996.28
2022-09-30T08:28:45.476Z,996.26
2022-09-30T08:30:46.491Z,996.33
2022-09-30T08:31:45.513Z,996.30
2022-09-30T08:32:45.430Z,996.32
2022-09-30T08:33:45.433Z,996.34
2022-09-30T08:34:45.429Z,996.31
2022-09-30T08:35:45.405Z,996.25
2022-09-30T08:36:45.393Z,996.26
2022-09-30T08:37:45.415Z,996.24
2022-09-30T08:38:45.370Z,996.22
2022-09-30T08:39:45.365Z,996.22
2022-09-30T08:40:45.349Z,996.19
2022-09-30T08:41:45.373Z,996.20
2022-09-30T08:42:51.495Z,996.21
2022-09-30T08:43:45.336Z,996.21
2022-09-30T08:44:45.325Z,996.24
2022-09-30T08:45:45.353Z,996.19
2022-09-30T08:46:45.326Z,996.18
2022-09-30T08:47:45.294Z,996.24
2022-09-30T08:48:45.267Z,996.24
2022-09-30T08:49:45.303Z,996.22
2022-09-30T08:50:45.252Z,996.21
2022-09-30T08:51:45.231Z,996.22
2022-09-30T08:52:48.998Z,996.18
2022-09-30T08:53:45.223Z,996.21
2022-09-30T08:54:45.214Z,996.13
2022-09-30T08:55:45.221Z,996.12
2022-09-30T08:56:45.174Z,996.11
2022-09-30T08:57:47.605Z,996.17
2022-09-30T08:58:45.170Z,996.14
2022-09-30T08:59:45.147Z,996.15
2022-09-30T09:00:45.174Z,996.12
2022-09-30T09:01:45.194Z,996.12
2022-09-30T09:02:45.232Z,996.09
2022-09-30T09:03:45.106Z,996.08
2022-09-30T09:04:45.127Z,996.09
2022-09-30T09:05:48.569Z,996.11
2022-09-30T09:06:46.149Z,996.12
2022-09-30T09:07:45.073Z,996.18
2022-09-30T09:08:45.070Z,996.18
2022-09-30T09:09:45.042Z,996.16
2022-09-30T09:10:45.049Z,996.08
2022-09-30T09:11:45.013Z,996.05
2022-09-30T09:12:45.022Z,996.06
2022-09-30T09:13:44.991Z,996.13
2022-09-30T09:14:44.978Z,996.08
2022-09-30T09:15:45.012Z,996.10
2022-09-30T09:16:45.032Z,996.09
2022-09-30T09:18:04.261Z,996.07
2022-09-30T09:18:45.954Z,996.08
2022-09-30T09:19:44.938Z,996.06
2022-09-30T09:20:44.919Z,996.08
2022-09-30T09:21:44.912Z,996.09
2022-09-30T09:22:44.916Z,996.12
2022-09-30T09:23:44.880Z,996.08
2022-09-30T09:24:44.940Z,996.11
2022-09-30T09:25:44.864Z,996.09
2022-09-30T09:26:44.845Z,996.09
2022-09-30T09:27:44.955Z,996.08
2022-09-30T09:28:44.855Z,996.08
2022-09-30T09:29:44.849Z,996.11
2022-09-30T09:30:44.841Z,996.04
2022-09-30T09:31:44.859Z,996.04
2022-09-30T09:32:44.789Z,996.06
2022-09-30T09:33:44.787Z,996.05
2022-09-30T09:34:44.809Z,996.06
2022-09-30T09:35:44.754Z,996.02
2022-09-30T09:36:44.762Z,996.07
2022-09-30T09:37:44.749Z,996.04
2022-09-30T09:38:44.766Z,996.06
2022-09-30T09:39:44.711Z,995.98
2022-09-30T09:40:44.700Z,996.02
2022-09-30T09:41:44.694Z,995.99
2022-09-30T09:42:44.695Z,995.99
2022-09-30T09:43:44.789Z,995.97
2022-09-30T09:44:44.664Z,995.93
2022-09-30T09:45:44.712Z,995.98
2022-09-30T09:46:44.656Z,996.02
2022-09-30T09:47:44.635Z,996.02
2022-09-30T09:48:44.640Z,995.98
2022-09-30T09:49:45.136Z,996.00
2022-09-30T09:50:44.617Z,995.91
2022-09-30T09:51:44.638Z,995.91
2022-09-30T09:52:44.572Z,995.91
2022-09-30T09:53:44.556Z,995.92
2022-09-30T09:54:44.543Z,995.92
2022-09-30T09:55:44.554Z,995.89
2022-09-30T09:56:44.526Z,995.89
2022-09-30T09:57:44.516Z,995.91
2022-09-30T09:58:44.555Z,995.95
2022-09-30T09:59:44.487Z,995.92
2022-09-30T10:00:44.611Z,995.93
2022-09-30T10:01:44.568Z,995.96
2022-09-30T10:02:44.462Z,995.90
2022-09-30T10:03:44.449Z,995.88
2022-09-30T10:04:44.513Z,995.86
2022-09-30T10:05:44.421Z,995.90
2022-09-30T10:06:44.442Z,995.87
2022-09-30T10:07:44.413Z,995.90
2022-09-30T10:08:44.397Z,995.88
2022-09-30T10:09:44.394Z,995.88
2022-09-30T10:10:44.394Z,995.89
2022-09-30T10:11:44.358Z,995.90
2022-09-30T10:12:44.354Z,995.88
2022-09-30T10:13:44.340Z,995.81
2022-09-30T10:14:44.331Z,995.81
2022-09-30T10:15:44.412Z,995.82
2022-09-30T10:16:44.308Z,995.84
2022-09-30T10:17:44.320Z,995.83
2022-09-30T10:18:44.287Z,995.84
2022-09-30T10:19:44.292Z,995.83
2022-09-30T10:20:44.335Z,995.83
2022-09-30T10:21:44.248Z,995.84
2022-09-30T10:22:44.270Z,995.87
2022-09-30T10:23:44.247Z,995.85
2022-09-30T10:24:44.254Z,995.80
2022-09-30T10:25:44.209Z,995.86
2022-09-30T10:26:47.744Z,995.90
2022-09-30T10:27:44.265Z,995.87
2022-09-30T10:28:44.174Z,995.87
2022-09-30T10:29:44.164Z,995.86
2022-09-30T10:30:44.167Z,995.84
2022-09-30T10:31:44.242Z,995.83
2022-09-30T10:32:44.130Z,995.81
2022-09-30T10:33:44.137Z,995.80
2022-09-30T10:34:44.132Z,995.82
2022-09-30T10:35:44.110Z,995.77
2022-09-30T10:36:44.087Z,995.77
2022-09-30T10:37:46.554Z,995.78
2022-09-30T10:38:45.091Z,995.80
2022-09-30T10:39:44.054Z,995.81
2022-09-30T10:40:44.061Z,995.80
2022-09-30T10:41:44.039Z,995.80
2022-09-30T10:42:44.019Z,995.83
2022-09-30T10:43:44.035Z,995.77
2022-09-30T10:44:44.004Z,995.76
2022-09-30T10:45:49.391Z,995.79
2022-09-30T10:46:45.127Z,995.78
2022-09-30T10:47:43.997Z,995.76
2022-09-30T10:48:43.958Z,995.75
2022-09-30T10:49:43.976Z,995.76
2022-09-30T10:50:43.944Z,995.68
2022-09-30T10:51:43.929Z,995.68
2022-09-30T10:52:43.914Z,995.71
2022-09-30T10:53:43.926Z,995.67
2022-09-30T10:54:44.078Z,995.66
2022-09-30T10:55:43.896Z,995.67
2022-09-30T10:56:43.873Z,995.72
2022-09-30T10:57:43.853Z,995.70
2022-09-30T10:58:43.956Z,995.79
2022-09-30T10:59:43.836Z,995.73
2022-09-30T11:00:43.901Z,995.74
2022-09-30T11:01:43.891Z,995.73
2022-09-30T11:02:43.856Z,995.70
2022-09-30T11:03:43.854Z,995.65
2022-09-30T11:04:43.786Z,995.68
2022-09-30T11:05:43.784Z,995.72
2022-09-30T11:06:43.783Z,995.64
2022-09-30T11:07:43.756Z,995.64
2022-09-30T11:08:43.739Z,995.58
2022-09-30T11:09:44.119Z,995.62
2022-09-30T11:10:43.859Z,995.65
2022-09-30T11:11:43.709Z,995.60
2022-09-30T11:12:43.713Z,995.57
2022-09-30T11:13:43.682Z,995.60
2022-09-30T11:14:43.693Z,995.57
2022-09-30T11:15:43.701Z,995.60
2022-09-30T11:16:43.768Z,995.58
2022-09-30T11:17:43.665Z,995.57
2022-09-30T11:18:43.633Z,995.60
2022-09-30T11:19:43.653Z,995.66
2022-09-30T11:20:43.615Z,995.60
2022-09-30T11:21:43.604Z,995.65
2022-09-30T11:22:43.595Z,995.62
2022-09-30T11:23:43.590Z,995.62
2022-09-30T11:24:43.569Z,995.63
2022-09-30T11:25:43.558Z,995.62
2022-09-30T11:26:43.563Z,995.61
2022-09-30T11:27:43.553Z,995.61
2022-09-30T11:28:43.532Z,995.63
2022-09-30T11:29:43.526Z,995.59
2022-09-30T11:30:43.503Z,995.65
2022-09-30T11:31:43.563Z,995.64
2022-09-30T11:32:43.504Z,995.63
2022-09-30T11:33:43.474Z,995.63
2022-09-30T11:34:43.495Z,995.66
2022-09-30T11:35:43.450Z,995.67
2022-09-30T11:36:43.447Z,995.71
2022-09-30T11:37:43.429Z,995.68
2022-09-30T11:38:43.462Z,995.67
2022-09-30T11:39:43.408Z,995.67
2022-09-30T11:40:43.395Z,995.67
2022-09-30T11:41:43.384Z,995.67
2022-09-30T11:42:43.391Z,995.66
2022-09-30T11:43:43.385Z,995.72
2022-09-30T11:44:43.376Z,995.70
2022-09-30T11:45:43.389Z,995.72
2022-09-30T11:46:43.365Z,995.74
2022-09-30T11:47:43.328Z,995.72
2022-09-30T11:48:43.334Z,995.69
2022-09-30T11:49:43.301Z,995.74
2022-09-30T11:50:43.312Z,995.83
2022-09-30T11:51:43.288Z,995.76
2022-09-30T11:52:43.274Z,995.77
2022-09-30T11:53:43.373Z,995.77
2022-09-30T11:54:43.262Z,995.81
2022-09-30T11:55:43.238Z,995.80
2022-09-30T11:56:43.249Z,995.82
2022-09-30T11:57:43.231Z,995.70
2022-09-30T11:58:43.217Z,995.80
2022-09-30T11:59:43.196Z,995.81
2022-09-30T12:00:47.107Z,995.77
2022-09-30T12:01:43.244Z,995.81
2022-09-30T12:02:43.189Z,995.84
2022-09-30T12:03:43.162Z,995.83
2022-09-30T12:04:43.136Z,995.83
2022-09-30T12:05:43.151Z,995.78
2022-09-30T12:06:43.142Z,995.86
2022-09-30T12:07:43.125Z,995.77
2022-09-30T12:08:43.094Z,995.79
2022-09-30T12:09:43.083Z,995.77
2022-09-30T12:10:43.076Z,995.74
2022-09-30T12:11:43.059Z,995.70
2022-09-30T12:12:43.070Z,995.74
2022-09-30T12:13:43.066Z,995.68
2022-09-30T12:14:43.047Z,995.70
2022-09-30T12:15:43.014Z,995.64
2022-09-30T12:16:43.039Z,995.59
2022-09-30T12:17:43.000Z,995.60
2022-09-30T12:18:43.014Z,995.59
2022-09-30T12:19:42.991Z,995.59
2022-09-30T12:20:42.992Z,995.63
2022-09-30T12:21:42.950Z,995.51
2022-09-30T12:22:42.938Z,995.47
2022-09-30T12:23:42.943Z,995.49
2022-09-30T12:24:42.965Z,995.52
2022-09-30T12:25:42.912Z,995.49
2022-09-30T12:26:42.931Z,995.49
2022-09-30T12:27:42.968Z,995.55
2022-09-30T12:28:42.887Z,995.54
2022-09-30T12:29:42.889Z,995.54
2022-09-30T12:30:42.873Z,995.54
2022-09-30T12:31:42.942Z,995.51
2022-09-30T12:32:42.876Z,995.49
2022-09-30T12:33:42.859Z,995.52
2022-09-30T12:34:42.823Z,995.51
2022-09-30T12:35:42.803Z,995.49
2022-09-30T12:36:42.788Z,995.51
2022-09-30T12:37:42.800Z,995.46
2022-09-30T12:38:42.826Z,995.48
2022-09-30T12:39:42.777Z,995.52
2022-09-30T12:40:42.794Z,995.48
2022-09-30T12:41:42.785Z,995.47
2022-09-30T12:42:42.727Z,995.44
2022-09-30T12:43:42.740Z,995.44
2022-09-30T12:44:42.701Z,995.45
2022-09-30T12:45:42.788Z,995.43
2022-09-30T12:46:42.700Z,995.47
2022-09-30T12:47:42.735Z,995.38
2022-09-30T12:48:42.663Z,995.38
2022-09-30T12:49:42.673Z,995.32
2022-09-30T12:50:42.658Z,995.29
2022-09-30T12:51:42.634Z,995.29
2022-09-30T12:52:42.655Z,995.25
2022-09-30T12:53:42.604Z,995.26
2022-09-30T12:54:42.648Z,995.31
2022-09-30T12:55:42.581Z,995.29
2022-09-30T12:56:42.569Z,995.25
2022-09-30T12:57:42.559Z,995.36
2022-09-30T12:58:42.564Z,995.34
2022-09-30T12:59:42.543Z,995.35
2022-09-30T13:00:42.736Z,995.32
2022-09-30T13:01:42.539Z,995.34
2022-09-30T13:02:42.650Z,995.31
2022-09-30T13:03:42.501Z,995.30
2022-09-30T13:04:42.511Z,995.23
2022-09-30T13:05:42.476Z,995.29
2022-09-30T13:06:42.522Z,995.29
2022-09-30T13:07:42.457Z,995.26
2022-09-30T13:08:42.448Z,995.25
2022-09-30T13:09:42.445Z,995.27
2022-09-30T13:10:42.459Z,995.28
2022-09-30T13:11:42.456Z,995.30
2022-09-30T13:12:42.433Z,995.29
2022-09-30T13:13:42.401Z,995.27
2022-09-30T13:14:42.433Z,995.26
2022-09-30T13:15:42.386Z,995.32
2022-09-30T13:16:42.432Z,995.30
2022-09-30T13:17:42.395Z,995.27
2022-09-30T13:18:42.368Z,995.28
2022-09-30T13:19:42.347Z,995.24
2022-09-30T13:20:42.328Z,995.26
2022-09-30T13:21:42.304Z,995.30
2022-09-30T13:22:42.292Z,995.33
2022-09-30T13:23:42.309Z,995.26
2022-09-30T13:24:46.235Z,995.26
2022-09-30T13:25:42.257Z,995.30
2022-09-30T13:26:42.258Z,995.28
2022-09-30T13:27:42.330Z,995.26
2022-09-30T13:28:42.230Z,995.27
2022-09-30T13:29:42.226Z,995.23
2022-09-30T13:30:42.228Z,995.20
2022-09-30T13:31:42.695Z,995.18
2022-09-30T13:32:42.212Z,995.17
2022-09-30T13:33:42.186Z,995.16
2022-09-30T13:34:42.188Z,995.17
2022-09-30T13:35:42.156Z,995.19
2022-09-30T13:36:42.161Z,995.13
2022-09-30T13:37:43.118Z,995.13
2022-09-30T13:38:42.159Z,995.12
2022-09-30T13:39:42.149Z,995.08
2022-09-30T13:41:00.867Z,995.10
2022-09-30T13:41:43.090Z,995.09
2022-09-30T13:42:42.071Z,995.10
2022-09-30T13:43:42.061Z,995.05
2022-09-30T13:44:42.056Z,995.03
2022-09-30T13:45:42.113Z,995.03
2022-09-30T13:46:42.030Z,995.02
2022-09-30T13:47:42.024Z,994.97
2022-09-30T13:48:42.009Z,994.96
2022-09-30T13:49:42.027Z,994.96
2022-09-30T13:50:42.017Z,994.95
2022-09-30T13:51:41.978Z,994.97
2022-09-30T13:52:41.981Z,994.94
2022-09-30T13:53:41.974Z,994.96
2022-09-30T13:54:41.948Z,994.99
2022-09-30T13:55:41.951Z,995.04
2022-09-30T13:56:41.971Z,995.00
2022-09-30T13:57:41.913Z,994.98
2022-09-30T13:58:41.907Z,994.98
2022-09-30T13:59:41.915Z,994.98
2022-09-30T14:00:41.934Z,995.09
2022-09-30T14:01:41.868Z,995.04
2022-09-30T14:02:41.863Z,995.04
2022-09-30T14:03:41.928Z,995.02
2022-09-30T14:04:41.835Z,995.02
2022-09-30T14:05:41.818Z,994.99
2022-09-30T14:06:41.894Z,994.97
2022-09-30T14:07:41.809Z,994.97
2022-09-30T14:08:42.563Z,994.98
2022-09-30T14:09:41.781Z,994.92
2022-09-30T14:10:41.771Z,994.92
2022-09-30T14:11:41.765Z,994.88
2022-09-30T14:12:41.767Z,994.92
2022-09-30T14:13:41.738Z,994.88
2022-09-30T14:14:42.124Z,994.82
2022-09-30T14:15:41.776Z,994.76
2022-09-30T14:16:41.719Z,994.84
2022-09-30T14:17:41.709Z,994.78
2022-09-30T14:18:41.684Z,994.76
2022-09-30T14:19:41.664Z,994.72
2022-09-30T14:20:41.651Z,994.78
2022-09-30T14:21:41.657Z,994.77
2022-09-30T14:22:41.682Z,994.80
2022-09-30T14:23:41.654Z,994.77
2022-09-30T14:24:41.621Z,994.74
2022-09-30T14:25:41.603Z,994.75
2022-09-30T14:26:41.613Z,994.75
2022-09-30T14:27:41.699Z,994.73
2022-09-30T14:28:41.585Z,994.73
2022-09-30T14:29:41.572Z,994.73
2022-09-30T14:30:41.548Z,994.77
2022-09-30T14:31:41.607Z,994.78
2022-09-30T14:32:41.540Z,994.75
2022-09-30T14:33:41.514Z,994.82
2022-09-30T14:34:41.514Z,994.77
2022-09-30T14:35:41.620Z,994.77
2022-09-30T14:36:41.490Z,994.75
2022-09-30T14:37:41.474Z,994.78
2022-09-30T14:38:41.472Z,994.76
2022-09-30T14:39:41.442Z,994.72
2022-09-30T14:40:41.444Z,994.75
2022-09-30T14:41:41.457Z,994.74
2022-09-30T14:42:41.424Z,994.72
2022-09-30T14:43:42.968Z,994.68
2022-09-30T14:44:41.389Z,994.62
2022-09-30T14:45:41.417Z,994.66
2022-09-30T14:46:41.383Z,994.67
2022-09-30T14:47:41.382Z,994.63
2022-09-30T14:48:41.367Z,994.67
2022-09-30T14:49:41.349Z,994.63
2022-09-30T14:50:41.327Z,994.63
2022-09-30T14:51:41.357Z,994.60
2022-09-30T14:52:41.339Z,994.61
2022-09-30T14:53:41.295Z,994.62
2022-09-30T14:54:41.300Z,994.63
2022-09-30T14:55:41.290Z,994.62
2022-09-30T14:56:41.262Z,994.61
2022-09-30T14:57:41.252Z,994.59
2022-09-30T14:58:41.252Z,994.59
2022-09-30T14:59:43.923Z,994.55
2022-09-30T15:00:41.296Z,994.63
2022-09-30T15:01:41.216Z,994.60
2022-09-30T15:02:41.199Z,994.59
2022-09-30T15:03:41.237Z,994.60
2022-09-30T15:04:41.237Z,994.58
2022-09-30T15:05:41.163Z,994.58
2022-09-30T15:06:41.153Z,994.54
2022-09-30T15:07:41.150Z,994.57
2022-09-30T15:08:41.154Z,994.59
2022-09-30T15:09:41.138Z,994.59
2022-09-30T15:10:41.135Z,994.56
2022-09-30T15:11:41.115Z,994.60
2022-09-30T15:12:41.108Z,994.61
2022-09-30T15:13:41.090Z,994.52
2022-09-30T15:14:41.063Z,994.62
2022-09-30T15:15:41.091Z,994.57
2022-09-30T15:16:41.198Z,994.60
2022-09-30T15:17:41.047Z,994.53
2022-09-30T15:18:41.038Z,994.55
2022-09-30T15:19:41.033Z,994.56
2022-09-30T15:20:41.015Z,994.50
2022-09-30T15:21:40.995Z,994.54
2022-09-30T15:22:40.988Z,994.52
2022-09-30T15:23:40.984Z,994.54
2022-09-30T15:24:40.980Z,994.57
2022-09-30T15:25:40.951Z,994.54
2022-09-30T15:26:40.957Z,994.57
2022-09-30T15:27:40.929Z,994.56
2022-09-30T15:28:40.971Z,994.55
2022-09-30T15:29:40.923Z,994.58
2022-09-30T15:30:40.898Z,994.53
2022-09-30T15:31:40.945Z,994.51
2022-09-30T15:33:40.882Z,994.47
2022-09-30T15:34:40.853Z,994.47
2022-09-30T15:35:40.850Z,994.50
2022-09-30T15:36:40.852Z,994.52
2022-09-30T15:37:40.825Z,994.50
2022-09-30T15:38:40.832Z,994.55
2022-09-30T15:39:45.238Z,994.56
2022-09-30T15:40:41.800Z,994.54
2022-09-30T15:41:40.783Z,994.54
2022-09-30T15:42:40.818Z,994.53
2022-09-30T15:43:40.757Z,994.52
2022-09-30T15:44:40.749Z,994.51
2022-09-30T15:45:40.807Z,994.52
2022-09-30T15:46:40.861Z,994.58
2022-09-30T15:47:40.717Z,994.52
2022-09-30T15:48:40.747Z,994.50
2022-09-30T15:49:40.709Z,994.51
2022-09-30T15:50:40.696Z,994.50
2022-09-30T15:51:40.686Z,994.55
2022-09-30T15:52:40.660Z,994.55
2022-09-30T15:53:40.657Z,994.55
2022-09-30T15:54:40.655Z,994.56
2022-09-30T15:55:40.629Z,994.61
2022-09-30T15:56:40.674Z,994.56
2022-09-30T15:57:40.644Z,994.63
2022-09-30T15:58:40.621Z,994.60
2022-09-30T15:59:40.602Z,994.57
2022-09-30T16:00:40.597Z,994.60
2022-09-30T16:01:40.570Z,994.59
2022-09-30T16:02:40.613Z,994.61
2022-09-30T16:03:40.562Z,994.61
2022-09-30T16:04:40.533Z,994.58
2022-09-30T16:05:40.517Z,994.58
2022-09-30T16:06:40.521Z,994.62
2022-09-30T16:07:40.492Z,994.64
2022-09-30T16:08:40.493Z,994.63
2022-09-30T16:09:40.474Z,994.64
2022-09-30T16:10:40.470Z,994.64
2022-09-30T16:11:40.475Z,994.64
2022-09-30T16:12:40.479Z,994.68
2022-09-30T16:13:40.425Z,994.70
2022-09-30T16:14:40.464Z,994.70
2022-09-30T16:15:40.430Z,994.71
2022-09-30T16:16:40.450Z,994.69
2022-09-30T16:17:40.409Z,994.70
2022-09-30T16:18:40.409Z,994.69
2022-09-30T16:19:40.373Z,994.75
2022-09-30T16:20:40.356Z,994.73
2022-09-30T16:21:40.349Z,994.73
2022-09-30T16:22:40.352Z,994.72
2022-09-30T16:23:40.324Z,994.73
2022-09-30T16:24:40.307Z,994.74
2022-09-30T16:25:40.297Z,994.73
2022-09-30T16:26:40.320Z,994.72
2022-09-30T16:27:40.300Z,994.72
2022-09-30T16:28:40.286Z,994.79
2022-09-30T16:29:40.257Z,994.80
2022-09-30T16:30:40.277Z,994.82
2022-09-30T16:31:40.378Z,994.82
2022-09-30T16:32:40.241Z,994.84
2022-09-30T16:33:40.242Z,994.84
2022-09-30T16:34:40.205Z,994.86
2022-09-30T16:35:40.219Z,994.86
2022-09-30T16:36:40.178Z,994.91
2022-09-30T16:37:40.193Z,994.89
2022-09-30T16:38:40.212Z,994.87
2022-09-30T16:39:40.161Z,994.92
2022-09-30T16:40:40.150Z,994.95
2022-09-30T16:41:40.142Z,994.99
2022-09-30T16:42:40.118Z,994.99
2022-09-30T16:43:40.134Z,995.01
2022-09-30T16:44:40.147Z,995.04
2022-09-30T16:45:40.304Z,995.01
2022-09-30T16:46:40.092Z,995.02
2022-09-30T16:47:40.076Z,995.03
2022-09-30T16:48:40.057Z,995.05
2022-09-30T16:49:40.046Z,995.01
2022-09-30T16:50:40.081Z,995.01
2022-09-30T16:51:40.026Z,994.98
2022-09-30T16:52:40.025Z,994.94
2022-09-30T16:53:40.007Z,994.92
2022-09-30T16:54:39.991Z,994.94
2022-09-30T16:55:39.987Z,994.96
2022-09-30T16:56:39.991Z,994.95
2022-09-30T16:57:39.959Z,995.07
2022-09-30T16:58:39.952Z,995.05
2022-09-30T16:59:39.951Z,995.06
2022-09-30T17:00:39.994Z,995.04
2022-09-30T17:01:39.939Z,995.02